sensor_id;sensor_type;location;lat;lon;timestamp;temperature;humidity
12827;DHT22;66927;48.812;9.118;2023-03-14T00:02:22;10.10;99.90
12827;DHT22;66927;48.812;9.118;2023-03-14T00:04:48;10.00;99.90
12827;DHT22;66927;48.812;9.118;2023-03-14T00:07:14;10.10;99.90
12827;DHT22;66927;48.812;9.118;2023-03-14T00:09:40;10.10;99.90
12827;DHT22;66927;48.812;9.118;2023-03-14T00:12:06;10.00;99.90
12827;DHT22;66927;48.812;9.118;2023-03-14T00:14:32;10.00;99.90
12827;DHT22;66927;48.812;9.118;2023-03-14T00:16:58;10.00;99.90
12827;DHT22;66927;48.812;9.118;2023-03-14T00:19:23;10.10;99.90
12827;DHT22;66927;48.812;9.118;2023-03-14T00:21:49;10.00;99.90
12827;DHT22;66927;48.812;9.118;2023-03-14T00:24:15;9.90;99.90
12827;DHT22;66927;48.812;9.118;2023-03-14T00:26:40;10.00;99.90
12827;DHT22;66927;48.812;9.118;2023-03-14T00:29:06;9.90;99.90
12827;DHT22;66927;48.812;9.118;2023-03-14T00:31:31;9.90;99.90
12827;DHT22;66927;48.812;9.118;2023-03-14T00:33:57;9.90;99.90
12827;DHT22;66927;48.812;9.118;2023-03-14T00:36:23;9.90;99.90
12827;DHT22;66927;48.812;9.118;2023-03-14T00:38:50;10.00;99.90
12827;DHT22;66927;48.812;9.118;2023-03-14T00:41:18;9.90;99.90
12827;DHT22;66927;48.812;9.118;2023-03-14T00:43:44;9.90;99.90
12827;DHT22;66927;48.812;9.118;2023-03-14T00:46:11;10.00;99.90
12827;DHT22;66927;48.812;9.118;2023-03-14T00:48:37;9.90;99.90
12827;DHT22;66927;48.812;9.118;2023-03-14T00:51:03;9.80;99.90
12827;DHT22;66927;48.812;9.118;2023-03-14T00:53:30;9.80;99.90
12827;DHT22;66927;48.812;9.118;2023-03-14T00:55:56;9.80;99.90
12827;DHT22;66927;48.812;9.118;2023-03-14T00:58:21;9.80;99.90
12827;DHT22;66927;48.812;9.118;2023-03-14T01:00:47;9.90;99.90
12827;DHT22;66927;48.812;9.118;2023-03-14T01:03:14;10.00;99.90
12827;DHT22;66927;48.812;9.118;2023-03-14T01:05:40;9.90;99.90
12827;DHT22;66927;48.812;9.118;2023-03-14T01:08:06;9.90;99.90
12827;DHT22;66927;48.812;9.118;2023-03-14T01:10:33;9.90;99.90
12827;DHT22;66927;48.812;9.118;2023-03-14T01:12:58;9.90;99.90
12827;DHT22;66927;48.812;9.118;2023-03-14T01:15:24;9.90;99.90
12827;DHT22;66927;48.812;9.118;2023-03-14T01:17:50;10.00;99.90
12827;DHT22;66927;48.812;9.118;2023-03-14T01:20:16;10.00;99.90
12827;DHT22;66927;48.812;9.118;2023-03-14T01:22:42;9.90;99.90
12827;DHT22;66927;48.812;9.118;2023-03-14T01:25:11;10.00;99.90
12827;DHT22;66927;48.812;9.118;2023-03-14T01:27:37;10.00;99.90
12827;DHT22;66927;48.812;9.118;2023-03-14T01:30:04;9.90;99.90
12827;DHT22;66927;48.812;9.118;2023-03-14T01:32:30;10.00;99.90
12827;DHT22;66927;48.812;9.118;2023-03-14T01:34:56;10.00;99.90
12827;DHT22;66927;48.812;9.118;2023-03-14T01:37:21;10.00;99.90
12827;DHT22;66927;48.812;9.118;2023-03-14T01:39:47;9.90;99.90
12827;DHT22;66927;48.812;9.118;2023-03-14T01:42:14;9.90;99.90
12827;DHT22;66927;48.812;9.118;2023-03-14T01:44:52;9.80;99.90
12827;DHT22;66927;48.812;9.118;2023-03-14T01:47:19;9.90;99.90
12827;DHT22;66927;48.812;9.118;2023-03-14T01:49:47;9.90;99.90
12827;DHT22;66927;48.812;9.118;2023-03-14T01:54:48;9.80;99.90
12827;DHT22;66927;48.812;9.118;2023-03-14T01:59:45;9.80;99.90
12827;DHT22;66927;48.812;9.118;2023-03-14T02:02:12;9.80;99.90
12827;DHT22;66927;48.812;9.118;2023-03-14T02:04:40;9.80;99.90
12827;DHT22;66927;48.812;9.118;2023-03-14T02:07:17;9.80;99.90
12827;DHT22;66927;48.812;9.118;2023-03-14T02:09:45;9.80;99.90
12827;DHT22;66927;48.812;9.118;2023-03-14T02:12:15;9.80;99.90
12827;DHT22;66927;48.812;9.118;2023-03-14T02:14:41;9.80;99.90
12827;DHT22;66927;48.812;9.118;2023-03-14T02:17:12;9.70;99.90
12827;DHT22;66927;48.812;9.118;2023-03-14T02:22:13;9.80;99.90
12827;DHT22;66927;48.812;9.118;2023-03-14T02:27:42;9.70;99.90
12827;DHT22;66927;48.812;9.118;2023-03-14T02:30:12;9.70;99.90
12827;DHT22;66927;48.812;9.118;2023-03-14T02:32:41;9.70;99.90
12827;DHT22;66927;48.812;9.118;2023-03-14T02:35:14;9.70;99.90
12827;DHT22;66927;48.812;9.118;2023-03-14T02:37:44;9.70;99.90
12827;DHT22;66927;48.812;9.118;2023-03-14T02:40:11;9.60;99.90
12827;DHT22;66927;48.812;9.118;2023-03-14T02:42:37;9.60;99.90
12827;DHT22;66927;48.812;9.118;2023-03-14T02:47:37;9.60;99.90
12827;DHT22;66927;48.812;9.118;2023-03-14T02:50:10;9.60;99.90
12827;DHT22;66927;48.812;9.118;2023-03-14T02:52:37;9.60;99.90
12827;DHT22;66927;48.812;9.118;2023-03-14T02:55:03;9.60;99.90
12827;DHT22;66927;48.812;9.118;2023-03-14T02:57:29;9.60;99.90
12827;DHT22;66927;48.812;9.118;2023-03-14T02:59:58;9.60;99.90
12827;DHT22;66927;48.812;9.118;2023-03-14T03:02:25;9.60;99.90
12827;DHT22;66927;48.812;9.118;2023-03-14T03:04:51;9.60;99.90
12827;DHT22;66927;48.812;9.118;2023-03-14T03:07:16;9.50;99.90
12827;DHT22;66927;48.812;9.118;2023-03-14T03:09:42;9.50;99.90
12827;DHT22;66927;48.812;9.118;2023-03-14T03:12:08;9.50;99.90
12827;DHT22;66927;48.812;9.118;2023-03-14T03:14:33;9.50;99.90
12827;DHT22;66927;48.812;9.118;2023-03-14T03:16:59;9.50;99.90
12827;DHT22;66927;48.812;9.118;2023-03-14T03:19:24;9.50;99.90
12827;DHT22;66927;48.812;9.118;2023-03-14T03:21:50;9.50;99.90
12827;DHT22;66927;48.812;9.118;2023-03-14T03:24:16;9.50;99.90
12827;DHT22;66927;48.812;9.118;2023-03-14T03:26:41;9.40;99.90
12827;DHT22;66927;48.812;9.118;2023-03-14T03:29:07;9.40;99.90
12827;DHT22;66927;48.812;9.118;2023-03-14T03:31:32;9.40;99.90
12827;DHT22;66927;48.812;9.118;2023-03-14T03:33:58;9.40;99.90
12827;DHT22;66927;48.812;9.118;2023-03-14T03:36:25;9.40;99.90
12827;DHT22;66927;48.812;9.118;2023-03-14T03:38:51;9.40;99.90
12827;DHT22;66927;48.812;9.118;2023-03-14T03:41:17;9.40;99.90
12827;DHT22;66927;48.812;9.118;2023-03-14T03:43:42;9.40;99.90
12827;DHT22;66927;48.812;9.118;2023-03-14T03:46:08;9.40;99.90
12827;DHT22;66927;48.812;9.118;2023-03-14T03:48:34;9.40;99.90
12827;DHT22;66927;48.812;9.118;2023-03-14T03:51:00;9.30;99.90
12827;DHT22;66927;48.812;9.118;2023-03-14T03:53:26;9.30;99.90
12827;DHT22;66927;48.812;9.118;2023-03-14T03:55:52;9.30;99.90
12827;DHT22;66927;48.812;9.118;2023-03-14T03:58:18;9.30;99.90
12827;DHT22;66927;48.812;9.118;2023-03-14T04:00:43;9.20;99.90
12827;DHT22;66927;48.812;9.118;2023-03-14T04:03:09;9.20;99.90
12827;DHT22;66927;48.812;9.118;2023-03-14T04:05:34;9.20;99.90
12827;DHT22;66927;48.812;9.118;2023-03-14T04:08:01;9.10;99.90
12827;DHT22;66927;48.812;9.118;2023-03-14T04:10:26;9.10;99.90
12827;DHT22;66927;48.812;9.118;2023-03-14T04:12:52;9.10;99.90
12827;DHT22;66927;48.812;9.118;2023-03-14T04:15:18;9.10;99.90
12827;DHT22;66927;48.812;9.118;2023-03-14T04:17:44;9.10;99.90
12827;DHT22;66927;48.812;9.118;2023-03-14T04:20:10;9.10;99.90
12827;DHT22;66927;48.812;9.118;2023-03-14T04:22:39;9.10;99.90
12827;DHT22;66927;48.812;9.118;2023-03-14T04:25:05;9.00;99.90
12827;DHT22;66927;48.812;9.118;2023-03-14T04:27:31;9.00;99.90
12827;DHT22;66927;48.812;9.118;2023-03-14T04:29:57;9.00;99.90
12827;DHT22;66927;48.812;9.118;2023-03-14T04:32:23;9.00;99.90
12827;DHT22;66927;48.812;9.118;2023-03-14T04:34:49;9.00;99.90
12827;DHT22;66927;48.812;9.118;2023-03-14T04:37:14;9.00;99.90
12827;DHT22;66927;48.812;9.118;2023-03-14T04:39:40;8.90;99.90
12827;DHT22;66927;48.812;9.118;2023-03-14T04:42:06;8.90;99.90
12827;DHT22;66927;48.812;9.118;2023-03-14T04:44:31;8.90;99.90
12827;DHT22;66927;48.812;9.118;2023-03-14T04:46:57;8.90;99.90
12827;DHT22;66927;48.812;9.118;2023-03-14T04:49:23;8.90;99.90
12827;DHT22;66927;48.812;9.118;2023-03-14T04:51:48;8.90;99.90
12827;DHT22;66927;48.812;9.118;2023-03-14T04:54:16;9.00;99.90
12827;DHT22;66927;48.812;9.118;2023-03-14T04:56:42;9.00;99.90
12827;DHT22;66927;48.812;9.118;2023-03-14T04:59:08;9.00;99.90
12827;DHT22;66927;48.812;9.118;2023-03-14T05:01:34;9.00;99.90
12827;DHT22;66927;48.812;9.118;2023-03-14T05:04:00;9.00;99.90
12827;DHT22;66927;48.812;9.118;2023-03-14T05:06:25;8.90;99.90
12827;DHT22;66927;48.812;9.118;2023-03-14T05:08:51;9.00;99.90
12827;DHT22;66927;48.812;9.118;2023-03-14T05:11:17;8.90;99.90
12827;DHT22;66927;48.812;9.118;2023-03-14T05:13:43;8.80;99.90
12827;DHT22;66927;48.812;9.118;2023-03-14T05:16:10;8.80;99.90
12827;DHT22;66927;48.812;9.118;2023-03-14T05:18:36;8.80;99.90
12827;DHT22;66927;48.812;9.118;2023-03-14T05:21:03;8.70;99.90
12827;DHT22;66927;48.812;9.118;2023-03-14T05:23:28;8.80;99.90
12827;DHT22;66927;48.812;9.118;2023-03-14T05:25:54;8.80;99.90
12827;DHT22;66927;48.812;9.118;2023-03-14T05:28:20;8.80;99.90
12827;DHT22;66927;48.812;9.118;2023-03-14T05:30:46;8.80;99.90
12827;DHT22;66927;48.812;9.118;2023-03-14T05:33:12;8.70;99.90
12827;DHT22;66927;48.812;9.118;2023-03-14T05:35:37;8.80;99.90
12827;DHT22;66927;48.812;9.118;2023-03-14T05:38:03;8.80;99.90
12827;DHT22;66927;48.812;9.118;2023-03-14T05:40:29;8.80;99.90
12827;DHT22;66927;48.812;9.118;2023-03-14T05:42:54;8.80;99.90
12827;DHT22;66927;48.812;9.118;2023-03-14T05:45:20;8.80;99.90
12827;DHT22;66927;48.812;9.118;2023-03-14T05:47:45;8.80;99.90
12827;DHT22;66927;48.812;9.118;2023-03-14T05:50:11;8.80;99.90
12827;DHT22;66927;48.812;9.118;2023-03-14T05:52:37;8.80;99.90
12827;DHT22;66927;48.812;9.118;2023-03-14T05:55:03;8.80;99.90
12827;DHT22;66927;48.812;9.118;2023-03-14T05:57:29;8.70;99.90
12827;DHT22;66927;48.812;9.118;2023-03-14T05:59:55;8.80;99.90
12827;DHT22;66927;48.812;9.118;2023-03-14T06:02:20;8.80;99.90
12827;DHT22;66927;48.812;9.118;2023-03-14T06:04:46;8.80;99.90
12827;DHT22;66927;48.812;9.118;2023-03-14T06:07:12;8.80;99.90
12827;DHT22;66927;48.812;9.118;2023-03-14T06:09:38;8.80;99.90
12827;DHT22;66927;48.812;9.118;2023-03-14T06:12:05;8.80;99.90
12827;DHT22;66927;48.812;9.118;2023-03-14T06:14:31;8.80;99.90
12827;DHT22;66927;48.812;9.118;2023-03-14T06:16:57;8.80;99.90
12827;DHT22;66927;48.812;9.118;2023-03-14T06:19:25;8.70;99.90
12827;DHT22;66927;48.812;9.118;2023-03-14T06:21:51;8.70;99.90
12827;DHT22;66927;48.812;9.118;2023-03-14T06:24:16;8.70;99.90
12827;DHT22;66927;48.812;9.118;2023-03-14T06:26:42;8.70;99.90
12827;DHT22;66927;48.812;9.118;2023-03-14T06:29:08;8.70;99.90
12827;DHT22;66927;48.812;9.118;2023-03-14T06:31:34;8.80;99.90
12827;DHT22;66927;48.812;9.118;2023-03-14T06:34:00;8.70;99.90
12827;DHT22;66927;48.812;9.118;2023-03-14T06:36:25;8.70;99.90
12827;DHT22;66927;48.812;9.118;2023-03-14T06:38:51;8.80;99.90
12827;DHT22;66927;48.812;9.118;2023-03-14T06:41:17;8.80;99.90
12827;DHT22;66927;48.812;9.118;2023-03-14T06:43:42;8.80;99.90
12827;DHT22;66927;48.812;9.118;2023-03-14T06:46:08;8.80;99.90
12827;DHT22;66927;48.812;9.118;2023-03-14T06:48:34;8.80;99.90
12827;DHT22;66927;48.812;9.118;2023-03-14T06:50:59;8.80;99.90
12827;DHT22;66927;48.812;9.118;2023-03-14T06:53:25;8.80;99.90
12827;DHT22;66927;48.812;9.118;2023-03-14T06:55:51;8.80;99.90
12827;DHT22;66927;48.812;9.118;2023-03-14T06:58:17;8.80;99.90
12827;DHT22;66927;48.812;9.118;2023-03-14T07:00:42;8.90;99.90
12827;DHT22;66927;48.812;9.118;2023-03-14T07:03:09;9.00;99.90
12827;DHT22;66927;48.812;9.118;2023-03-14T07:05:35;9.10;99.90
12827;DHT22;66927;48.812;9.118;2023-03-14T07:08:01;9.20;99.90
12827;DHT22;66927;48.812;9.118;2023-03-14T07:10:26;9.20;99.90
12827;DHT22;66927;48.812;9.118;2023-03-14T07:12:52;9.20;99.90
12827;DHT22;66927;48.812;9.118;2023-03-14T07:15:19;9.30;99.90
12827;DHT22;66927;48.812;9.118;2023-03-14T07:17:45;9.30;99.90
12827;DHT22;66927;48.812;9.118;2023-03-14T07:20:13;9.30;99.90
12827;DHT22;66927;48.812;9.118;2023-03-14T07:22:39;9.30;99.90
12827;DHT22;66927;48.812;9.118;2023-03-14T07:25:05;9.40;99.90
12827;DHT22;66927;48.812;9.118;2023-03-14T07:27:31;9.50;99.90
12827;DHT22;66927;48.812;9.118;2023-03-14T07:29:56;9.70;99.90
12827;DHT22;66927;48.812;9.118;2023-03-14T07:32:22;9.80;99.90
12827;DHT22;66927;48.812;9.118;2023-03-14T07:34:48;9.90;99.90
12827;DHT22;66927;48.812;9.118;2023-03-14T07:37:13;10.10;99.90
12827;DHT22;66927;48.812;9.118;2023-03-14T07:39:39;10.20;99.90
12827;DHT22;66927;48.812;9.118;2023-03-14T07:42:05;10.30;99.90
12827;DHT22;66927;48.812;9.118;2023-03-14T07:44:32;10.50;99.90
12827;DHT22;66927;48.812;9.118;2023-03-14T07:46:57;10.60;99.90
12827;DHT22;66927;48.812;9.118;2023-03-14T07:49:23;10.80;99.90
12827;DHT22;66927;48.812;9.118;2023-03-14T07:51:49;11.00;99.90
12827;DHT22;66927;48.812;9.118;2023-03-14T07:54:15;11.20;99.90
12827;DHT22;66927;48.812;9.118;2023-03-14T07:56:41;11.40;99.90
12827;DHT22;66927;48.812;9.118;2023-03-14T07:59:07;11.60;99.90
12827;DHT22;66927;48.812;9.118;2023-03-14T08:01:32;11.80;99.90
12827;DHT22;66927;48.812;9.118;2023-03-14T08:03:58;11.90;99.90
12827;DHT22;66927;48.812;9.118;2023-03-14T08:06:24;11.90;99.90
12827;DHT22;66927;48.812;9.118;2023-03-14T08:08:50;12.10;99.90
12827;DHT22;66927;48.812;9.118;2023-03-14T08:11:16;12.20;99.90
12827;DHT22;66927;48.812;9.118;2023-03-14T08:13:41;12.40;99.90
12827;DHT22;66927;48.812;9.118;2023-03-14T08:16:07;12.60;99.90
12827;DHT22;66927;48.812;9.118;2023-03-14T08:18:33;12.80;99.90
12827;DHT22;66927;48.812;9.118;2023-03-14T08:20:59;13.00;99.90
12827;DHT22;66927;48.812;9.118;2023-03-14T08:23:25;13.50;99.90
12827;DHT22;66927;48.812;9.118;2023-03-14T08:25:51;14.70;99.90
12827;DHT22;66927;48.812;9.118;2023-03-14T08:28:18;15.50;99.90
12827;DHT22;66927;48.812;9.118;2023-03-14T08:30:44;16.30;99.90
12827;DHT22;66927;48.812;9.118;2023-03-14T08:33:10;16.80;99.90
12827;DHT22;66927;48.812;9.118;2023-03-14T08:35:37;16.60;99.80
12827;DHT22;66927;48.812;9.118;2023-03-14T08:38:03;16.20;99.90
12827;DHT22;66927;48.812;9.118;2023-03-14T08:40:28;15.70;99.90
12827;DHT22;66927;48.812;9.118;2023-03-14T08:42:54;15.30;99.90
12827;DHT22;66927;48.812;9.118;2023-03-14T08:45:20;15.10;99.90
12827;DHT22;66927;48.812;9.118;2023-03-14T08:47:47;14.40;99.90
12827;DHT22;66927;48.812;9.118;2023-03-14T08:50:12;13.70;99.90
12827;DHT22;66927;48.812;9.118;2023-03-14T08:52:39;13.70;99.90
12827;DHT22;66927;48.812;9.118;2023-03-14T08:55:07;14.60;99.90
12827;DHT22;66927;48.812;9.118;2023-03-14T08:57:33;15.40;99.90
12827;DHT22;66927;48.812;9.118;2023-03-14T08:59:58;16.40;99.70
12827;DHT22;66927;48.812;9.118;2023-03-14T09:02:25;16.50;99.00
12827;DHT22;66927;48.812;9.118;2023-03-14T09:04:51;16.20;99.30
12827;DHT22;66927;48.812;9.118;2023-03-14T09:07:17;15.80;99.70
12827;DHT22;66927;48.812;9.118;2023-03-14T09:09:43;15.20;99.90
12827;DHT22;66927;48.812;9.118;2023-03-14T09:12:09;15.30;99.90
12827;DHT22;66927;48.812;9.118;2023-03-14T09:14:34;15.00;99.90
12827;DHT22;66927;48.812;9.118;2023-03-14T09:17:00;15.10;99.90
12827;DHT22;66927;48.812;9.118;2023-03-14T09:19:26;14.60;99.90
12827;DHT22;66927;48.812;9.118;2023-03-14T09:21:51;14.10;99.90
12827;DHT22;66927;48.812;9.118;2023-03-14T09:24:17;13.80;99.90
12827;DHT22;66927;48.812;9.118;2023-03-14T09:26:43;13.80;99.90
12827;DHT22;66927;48.812;9.118;2023-03-14T09:29:09;13.10;99.90
12827;DHT22;66927;48.812;9.118;2023-03-14T09:31:34;12.90;99.90
12827;DHT22;66927;48.812;9.118;2023-03-14T09:34:00;13.00;99.90
12827;DHT22;66927;48.812;9.118;2023-03-14T09:36:26;12.90;99.90
12827;DHT22;66927;48.812;9.118;2023-03-14T09:38:52;13.10;99.90
12827;DHT22;66927;48.812;9.118;2023-03-14T09:41:23;13.20;99.90
12827;DHT22;66927;48.812;9.118;2023-03-14T09:46:35;13.10;99.90
12827;DHT22;66927;48.812;9.118;2023-03-14T09:49:02;13.30;99.90
12827;DHT22;66927;48.812;9.118;2023-03-14T09:51:29;13.30;99.90
12827;DHT22;66927;48.812;9.118;2023-03-14T09:53:54;13.50;99.90
12827;DHT22;66927;48.812;9.118;2023-03-14T09:56:26;13.40;99.90
12827;DHT22;66927;48.812;9.118;2023-03-14T09:58:55;13.30;99.90
12827;DHT22;66927;48.812;9.118;2023-03-14T10:01:27;13.30;99.90
12827;DHT22;66927;48.812;9.118;2023-03-14T10:03:58;14.00;99.90
12827;DHT22;66927;48.812;9.118;2023-03-14T10:06:28;14.90;99.90
12827;DHT22;66927;48.812;9.118;2023-03-14T10:08:54;16.10;99.90
12827;DHT22;66927;48.812;9.118;2023-03-14T10:11:22;17.70;99.40
12827;DHT22;66927;48.812;9.118;2023-03-14T10:14:09;19.00;96.80
12827;DHT22;66927;48.812;9.118;2023-03-14T10:16:45;19.40;95.30
12827;DHT22;66927;48.812;9.118;2023-03-14T10:19:14;20.50;94.10
12827;DHT22;66927;48.812;9.118;2023-03-14T10:21:44;22.00;92.10
12827;DHT22;66927;48.812;9.118;2023-03-14T10:24:22;22.20;88.90
12827;DHT22;66927;48.812;9.118;2023-03-14T10:26:49;23.00;85.50
12827;DHT22;66927;48.812;9.118;2023-03-14T10:29:17;21.80;86.10
12827;DHT22;66927;48.812;9.118;2023-03-14T10:32:04;20.50;88.70
12827;DHT22;66927;48.812;9.118;2023-03-14T10:34:35;19.30;91.00
12827;DHT22;66927;48.812;9.118;2023-03-14T10:37:23;17.60;92.70
12827;DHT22;66927;48.812;9.118;2023-03-14T10:39:53;17.30;94.30
12827;DHT22;66927;48.812;9.118;2023-03-14T10:42:26;18.00;94.00
12827;DHT22;66927;48.812;9.118;2023-03-14T10:44:59;18.80;92.80
12827;DHT22;66927;48.812;9.118;2023-03-14T10:47:26;20.20;91.90
12827;DHT22;66927;48.812;9.118;2023-03-14T10:49:54;19.80;90.20
12827;DHT22;66927;48.812;9.118;2023-03-14T10:52:31;19.20;91.00
12827;DHT22;66927;48.812;9.118;2023-03-14T10:55:01;18.40;92.10
12827;DHT22;66927;48.812;9.118;2023-03-14T10:57:27;17.40;93.30
12827;DHT22;66927;48.812;9.118;2023-03-14T10:59:55;16.10;94.70
12827;DHT22;66927;48.812;9.118;2023-03-14T11:07:44;14.60;98.40
12827;DHT22;66927;48.812;9.118;2023-03-14T11:10:24;14.40;99.40
12827;DHT22;66927;48.812;9.118;2023-03-14T11:13:23;14.00;99.90
12827;DHT22;66927;48.812;9.118;2023-03-14T11:27:40;12.70;99.90
12827;DHT22;66927;48.812;9.118;2023-03-14T11:35:20;12.00;99.90
12827;DHT22;66927;48.812;9.118;2023-03-14T11:40:50;11.80;99.90
12827;DHT22;66927;48.812;9.118;2023-03-14T11:43:39;11.70;99.90
12827;DHT22;66927;48.812;9.118;2023-03-14T11:46:22;11.70;99.90
12827;DHT22;66927;48.812;9.118;2023-03-14T11:49:05;11.70;99.90
12827;DHT22;66927;48.812;9.118;2023-03-14T11:51:41;11.60;99.90
12827;DHT22;66927;48.812;9.118;2023-03-14T11:54:22;11.60;99.90
12827;DHT22;66927;48.812;9.118;2023-03-14T11:56:54;11.60;99.90
12827;DHT22;66927;48.812;9.118;2023-03-14T12:02:57;11.30;99.90
12827;DHT22;66927;48.812;9.118;2023-03-14T12:13:19;14.10;99.90
12827;DHT22;66927;48.812;9.118;2023-03-14T12:16:00;13.90;99.90
12827;DHT22;66927;48.812;9.118;2023-03-14T12:18:35;13.50;99.90
12827;DHT22;66927;48.812;9.118;2023-03-14T12:21:07;13.00;99.90
12827;DHT22;66927;48.812;9.118;2023-03-14T12:23:55;12.60;99.90
12827;DHT22;66927;48.812;9.118;2023-03-14T12:26:27;12.30;99.90
12827;DHT22;66927;48.812;9.118;2023-03-14T12:34:03;16.10;99.90
12827;DHT22;66927;48.812;9.118;2023-03-14T12:42:14;15.00;99.90
12827;DHT22;66927;48.812;9.118;2023-03-14T12:44:50;17.20;98.90
12827;DHT22;66927;48.812;9.118;2023-03-14T12:49:54;22.80;90.10
12827;DHT22;66927;48.812;9.118;2023-03-14T12:52:40;25.10;74.40
12827;DHT22;66927;48.812;9.118;2023-03-14T12:55:39;27.00;65.80
12827;DHT22;66927;48.812;9.118;2023-03-14T12:58:17;28.10;56.80
12827;DHT22;66927;48.812;9.118;2023-03-14T13:00:57;27.90;53.30
12827;DHT22;66927;48.812;9.118;2023-03-14T13:03:39;27.20;55.00
12827;DHT22;66927;48.812;9.118;2023-03-14T13:06:05;27.30;54.70
12827;DHT22;66927;48.812;9.118;2023-03-14T13:08:41;25.30;53.50
12827;DHT22;66927;48.812;9.118;2023-03-14T13:11:19;23.30;56.80
12827;DHT22;66927;48.812;9.118;2023-03-14T13:13:47;22.10;59.00
12827;DHT22;66927;48.812;9.118;2023-03-14T13:16:17;21.00;63.40
12827;DHT22;66927;48.812;9.118;2023-03-14T13:18:45;19.50;64.90
12827;DHT22;66927;48.812;9.118;2023-03-14T13:21:17;18.40;65.30
12827;DHT22;66927;48.812;9.118;2023-03-14T13:24:03;17.40;66.90
12827;DHT22;66927;48.812;9.118;2023-03-14T13:26:35;16.20;68.50
12827;DHT22;66927;48.812;9.118;2023-03-14T13:31:44;17.50;67.20
12827;DHT22;66927;48.812;9.118;2023-03-14T13:34:11;17.80;66.50
12827;DHT22;66927;48.812;9.118;2023-03-14T13:36:37;18.80;64.40
12827;DHT22;66927;48.812;9.118;2023-03-14T13:39:06;17.70;65.20
12827;DHT22;66927;48.812;9.118;2023-03-14T13:41:37;16.40;65.50
12827;DHT22;66927;48.812;9.118;2023-03-14T13:44:06;14.80;69.50
12827;DHT22;66927;48.812;9.118;2023-03-14T13:46:36;14.00;73.50
12827;DHT22;66927;48.812;9.118;2023-03-14T13:49:04;13.50;74.70
12827;DHT22;66927;48.812;9.118;2023-03-14T13:51:31;13.50;75.90
12827;DHT22;66927;48.812;9.118;2023-03-14T13:54:00;13.50;75.40
12827;DHT22;66927;48.812;9.118;2023-03-14T13:56:31;12.70;73.00
12827;DHT22;66927;48.812;9.118;2023-03-14T13:58:57;12.30;74.10
12827;DHT22;66927;48.812;9.118;2023-03-14T14:01:34;12.00;76.20
12827;DHT22;66927;48.812;9.118;2023-03-14T14:04:07;11.50;74.70
12827;DHT22;66927;48.812;9.118;2023-03-14T14:06:38;11.40;75.80
12827;DHT22;66927;48.812;9.118;2023-03-14T14:09:16;11.40;73.80
12827;DHT22;66927;48.812;9.118;2023-03-14T14:14:21;11.50;75.60
12827;DHT22;66927;48.812;9.118;2023-03-14T14:16:49;11.20;72.40
12827;DHT22;66927;48.812;9.118;2023-03-14T14:19:16;11.00;74.50
12827;DHT22;66927;48.812;9.118;2023-03-14T14:21:44;11.20;76.50
12827;DHT22;66927;48.812;9.118;2023-03-14T14:24:14;11.10;75.30
12827;DHT22;66927;48.812;9.118;2023-03-14T14:26:54;11.10;75.80
12827;DHT22;66927;48.812;9.118;2023-03-14T14:29:29;11.00;76.70
12827;DHT22;66927;48.812;9.118;2023-03-14T14:34:39;11.00;77.00
12827;DHT22;66927;48.812;9.118;2023-03-14T14:37:24;10.80;76.60
12827;DHT22;66927;48.812;9.118;2023-03-14T14:39:52;10.50;78.20
12827;DHT22;66927;48.812;9.118;2023-03-14T14:42:20;10.60;78.70
12827;DHT22;66927;48.812;9.118;2023-03-14T14:44:48;10.60;77.80
12827;DHT22;66927;48.812;9.118;2023-03-14T14:47:20;10.50;78.00
12827;DHT22;66927;48.812;9.118;2023-03-14T14:49:47;10.40;77.90
12827;DHT22;66927;48.812;9.118;2023-03-14T14:52:21;10.30;79.80
12827;DHT22;66927;48.812;9.118;2023-03-14T14:55:50;10.20;79.50
12827;DHT22;66927;48.812;9.118;2023-03-14T14:57:57;10.30;81.90
12827;DHT22;66927;48.812;9.118;2023-03-14T15:00:25;10.50;82.40
12827;DHT22;66927;48.812;9.118;2023-03-14T15:02:55;10.60;80.50
12827;DHT22;66927;48.812;9.118;2023-03-14T15:05:26;10.80;80.30
12827;DHT22;66927;48.812;9.118;2023-03-14T15:07:53;11.70;77.30
12827;DHT22;66927;48.812;9.118;2023-03-14T15:10:20;11.50;75.00
12827;DHT22;66927;48.812;9.118;2023-03-14T15:12:46;11.70;76.50
12827;DHT22;66927;48.812;9.118;2023-03-14T15:15:16;12.40;76.30
12827;DHT22;66927;48.812;9.118;2023-03-14T15:17:42;12.40;74.20
12827;DHT22;66927;48.812;9.118;2023-03-14T15:20:13;12.30;74.30
12827;DHT22;66927;48.812;9.118;2023-03-14T15:22:40;11.90;75.60
12827;DHT22;66927;48.812;9.118;2023-03-14T15:25:06;11.60;76.50
12827;DHT22;66927;48.812;9.118;2023-03-14T15:27:32;11.60;77.10
12827;DHT22;66927;48.812;9.118;2023-03-14T15:29:58;11.30;79.00
12827;DHT22;66927;48.812;9.118;2023-03-14T15:32:27;11.20;78.30
12827;DHT22;66927;48.812;9.118;2023-03-14T15:34:56;11.00;79.50
12827;DHT22;66927;48.812;9.118;2023-03-14T15:37:21;10.70;78.60
12827;DHT22;66927;48.812;9.118;2023-03-14T15:39:47;10.70;79.40
12827;DHT22;66927;48.812;9.118;2023-03-14T15:42:13;11.10;79.10
12827;DHT22;66927;48.812;9.118;2023-03-14T15:44:38;11.40;80.10
12827;DHT22;66927;48.812;9.118;2023-03-14T15:47:04;11.60;79.00
12827;DHT22;66927;48.812;9.118;2023-03-14T15:49:31;11.60;77.80
12827;DHT22;66927;48.812;9.118;2023-03-14T15:51:58;11.50;79.10
12827;DHT22;66927;48.812;9.118;2023-03-14T15:54:24;11.60;78.20
12827;DHT22;66927;48.812;9.118;2023-03-14T15:56:57;11.50;78.90
12827;DHT22;66927;48.812;9.118;2023-03-14T15:59:24;11.50;79.60
12827;DHT22;66927;48.812;9.118;2023-03-14T16:01:50;11.60;79.30
12827;DHT22;66927;48.812;9.118;2023-03-14T16:04:16;11.50;79.90
12827;DHT22;66927;48.812;9.118;2023-03-14T16:06:42;11.10;78.70
12827;DHT22;66927;48.812;9.118;2023-03-14T16:09:11;10.80;79.90
12827;DHT22;66927;48.812;9.118;2023-03-14T16:11:37;10.50;81.20
12827;DHT22;66927;48.812;9.118;2023-03-14T16:14:03;10.20;82.10
12827;DHT22;66927;48.812;9.118;2023-03-14T16:16:29;10.00;82.90
12827;DHT22;66927;48.812;9.118;2023-03-14T16:18:54;9.80;84.00
12827;DHT22;66927;48.812;9.118;2023-03-14T16:21:21;9.70;84.60
12827;DHT22;66927;48.812;9.118;2023-03-14T16:23:47;9.40;86.30
12827;DHT22;66927;48.812;9.118;2023-03-14T16:26:16;9.30;86.50
12827;DHT22;66927;48.812;9.118;2023-03-14T16:28:43;9.20;86.40
12827;DHT22;66927;48.812;9.118;2023-03-14T16:31:12;9.10;87.40
12827;DHT22;66927;48.812;9.118;2023-03-14T16:33:40;9.30;88.10
12827;DHT22;66927;48.812;9.118;2023-03-14T16:36:07;9.50;87.50
12827;DHT22;66927;48.812;9.118;2023-03-14T16:38:37;9.50;86.60
12827;DHT22;66927;48.812;9.118;2023-03-14T16:41:06;9.40;87.60
12827;DHT22;66927;48.812;9.118;2023-03-14T16:43:32;9.30;87.60
12827;DHT22;66927;48.812;9.118;2023-03-14T16:45:59;9.20;88.20
12827;DHT22;66927;48.812;9.118;2023-03-14T16:48:28;9.20;88.50
12827;DHT22;66927;48.812;9.118;2023-03-14T16:50:54;9.10;89.40
12827;DHT22;66927;48.812;9.118;2023-03-14T16:53:19;9.10;90.00
12827;DHT22;66927;48.812;9.118;2023-03-14T16:55:45;8.90;90.40
12827;DHT22;66927;48.812;9.118;2023-03-14T16:58:11;8.80;90.30